Time,TemperatureF,DewpointF,PressureIn,WindDirection,WindDirectionDegrees,WindSpeedMPH,WindSpeedGustMPH,Humidity,HourlyPrecipIn,Conditions,Clouds,dailyrainin,SoftwareType,DateUTC
2017-10-20 00:00:00,78.3,72.0,30.07,East,87,11.5,11.5,81,0.01,CLR,OVC,0.00,WeatherDisplay:10.37,2017-10-20 04:00:00,
2017-10-20 00:05:00,78.4,72.1,30.07,ENE,72,14.0,14.0,81,0.01,CLR,OVC,0.00,WeatherDisplay:10.37,2017-10-20 04:05:00,
2017-10-20 00:10:00,78.7,72.0,30.07,ESE,107,12.7,12.7,80,0.01,CLR,OVC,0.00,WeatherDisplay:10.37,2017-10-20 04:10:00,
2017-10-20 00:15:00,78.8,71.7,30.07,ENE,74,6.0,12.0,79,0.00,CLR,OVC,0.00,WeatherDisplay:10.37,2017-10-20 04:15:00,
2017-10-20 00:20:00,78.9,71.8,30.07,ENE,75,7.0,13.0,79,0.00,CLR,OVC,0.00,WeatherDisplay:10.37,2017-10-20 04:20:00,
2017-10-20 00:25:00,78.9,72.2,30.07,ENE,69,7.0,14.0,80,0.00,CLR,OVC,0.00,WeatherDisplay:10.37,2017-10-20 04:25:00,
2017-10-20 00:30:00,79.0,71.9,30.07,East,96,5.8,5.8,79,0.00,CLR,OVC,0.00,WeatherDisplay:10.37,2017-10-20 04:30:00,
2017-10-20 00:35:00,79.0,71.9,30.07,ENE,72,15.0,15.0,79,0.00,CLR,OVC,0.00,WeatherDisplay:10.37,2017-10-20 04:35:00,
2017-10-20 00:40:00,79.1,72.0,30.07,ENE,74,11.5,11.5,79,0.00,CLR,OVC,0.00,WeatherDisplay:10.37,2017-10-20 04:40:00,
2017-10-20 00:45:00,79.1,72.0,30.07,ENE,78,13.0,13.0,79,0.00,CLR,OVC,0.00,WeatherDisplay:10.37,2017-10-20 04:45:00,
2017-10-20 00:50:00,79.2,72.1,30.07,East,82,11.5,11.5,79,0.00,CLR,OVC,0.00,WeatherDisplay:10.37,2017-10-20 04:50:00,
2017-10-20 00:55:00,79.2,72.1,30.07,NE,51,16.1,16.1,79,0.00,CLR,OVC,0.00,WeatherDisplay:10.37,2017-10-20 04:55:00,
2017-10-20 01:00:00,79.2,72.1,30.07,East,83,17.3,17.3,79,0.00,CLR,OVC,0.00,WeatherDisplay:10.37,2017-10-20 05:00:00,
2017-10-20 01:05:00,78.8,72.1,30.07,ESE,104,11.5,11.5,80,0.00,CLR,OVC,0.00,WeatherDisplay:10.37,2017-10-20 05:05:00,
2017-10-20 01:10:00,78.1,71.8,30.07,East,94,10.4,10.4,81,0.00,CLR,OVC,0.00,WeatherDisplay:10.37,2017-10-20 05:10:00,
2017-10-20 01:15:00,77.8,71.9,30.07,ENE,78,13.8,13.8,82,0.01,RA,OVC,0.01,WeatherDisplay:10.37,2017-10-20 05:15:00,
2017-10-20 01:20:00,77.8,71.9,30.07,NE,45,6.9,6.9,82,0.01,RA,OVC,0.01,WeatherDisplay:10.37,2017-10-20 05:20:00,
2017-10-20 01:25:00,77.9,72.0,30.07,East,86,5.8,5.8,82,0.01,CLR,OVC,0.01,WeatherDisplay:10.37,2017-10-20 05:25:00,
2017-10-20 01:30:00,78.0,72.1,30.07,ENE,76,10.4,10.4,82,0.01,CLR,OVC,0.01,WeatherDisplay:10.37,2017-10-20 05:30:00,
2017-10-20 01:35:00,78.0,71.7,30.07,NE,55,9.2,9.2,81,0.01,CLR,OVC,0.01,WeatherDisplay:10.37,2017-10-20 05:35:00,
2017-10-20 01:40:00,78.1,71.1,30.07,NE,55,13.8,13.8,79,0.01,CLR,OVC,0.01,WeatherDisplay:10.37,2017-10-20 05:40:00,
2017-10-20 01:45:00,78.3,70.9,30.07,East,90,11.5,11.5,78,0.01,CLR,OVC,0.01,WeatherDisplay:10.37,2017-10-20 05:45:00,
2017-10-20 01:50:00,78.5,71.4,30.07,East,81,5.8,5.8,79,0.01,CLR,OVC,0.01,WeatherDisplay:10.37,2017-10-20 05:50:00,
2017-10-20 01:55:00,78.5,71.8,30.07,NE,54,9.2,9.2,80,0.01,CLR,OVC,0.01,WeatherDisplay:10.37,2017-10-20 05:55:00,
2017-10-20 02:00:00,78.5,71.8,30.07,ENE,76,13.8,13.8,80,0.01,CLR,OVC,0.01,WeatherDisplay:10.37,2017-10-20 06:00:00,
2017-10-20 02:05:00,78.5,71.4,30.07,NE,40,12.7,12.7,79,0.01,CLR,OVC,0.01,WeatherDisplay:10.37,2017-10-20 06:05:00,
2017-10-20 02:10:00,78.6,71.2,30.07,ESE,105,11.5,11.5,78,0.01,CLR,OVC,0.01,WeatherDisplay:10.37,2017-10-20 06:10:00,
2017-10-20 02:15:00,78.7,71.6,30.07,NE,44,11.5,11.5,79,0.00,CLR,OVC,0.01,WeatherDisplay:10.37,2017-10-20 06:15:00,
2017-10-20 02:20:00,78.8,71.7,30.07,East,80,10.4,10.4,79,0.00,CLR,OVC,0.01,WeatherDisplay:10.37,2017-10-20 06:20:00,
2017-10-20 02:25:00,78.8,71.7,30.07,ENE,65,15.0,15.0,79,0.00,CLR,OVC,0.01,WeatherDisplay:10.37,2017-10-20 06:25:00,
2017-10-20 02:30:00,78.8,71.7,30.06,ENE,60,16.1,16.1,79,0.00,CLR,OVC,0.01,WeatherDisplay:10.37,2017-10-20 06:30:00,
2017-10-20 02:35:00,78.7,71.3,30.07,ENE,67,8.1,8.1,78,0.00,CLR,OVC,0.01,WeatherDisplay:10.37,2017-10-20 06:35:00,
2017-10-20 02:40:00,78.7,70.9,30.06,NE,50,10.4,10.4,77,0.00,CLR,OVC,0.01,WeatherDisplay:10.37,2017-10-20 06:40:00,
2017-10-20 02:45:00,78.6,70.8,30.06,NE,48,10.4,10.4,77,0.00,CLR,OVC,0.01,WeatherDisplay:10.37,2017-10-20 06:45:00,
2017-10-20 02:50:00,78.6,70.8,30.06,ENE,65,6.9,6.9,77,0.00,CLR,OVC,0.01,WeatherDisplay:10.37,2017-10-20 06:50:00,
2017-10-20 02:55:00,78.6,70.8,30.06,East,91,15.0,15.0,77,0.00,CLR,OVC,0.01,WeatherDisplay:10.37,2017-10-20 06:55:00,
2017-10-20 03:00:00,78.6,71.2,30.06,NE,52,13.8,13.8,78,0.00,CLR,OVC,0.01,WeatherDisplay:10.37,2017-10-20 07:00:00,
2017-10-20 03:05:00,78.6,70.8,30.06,ENE,63,11.5,11.5,77,0.00,CLR,OVC,0.01,WeatherDisplay:10.37,2017-10-20 07:05:00,
2017-10-20 03:10:00,78.6,70.8,30.06,ENE,78,11.5,11.5,77,0.00,CLR,OVC,0.01,WeatherDisplay:10.37,2017-10-20 07:10:00,
2017-10-20 03:15:00,78.5,70.7,30.06,ENE,77,12.7,12.7,77,0.00,CLR,OVC,0.01,WeatherDisplay:10.37,2017-10-20 07:15:00,
2017-10-20 03:20:00,78.5,70.7,30.06,East,79,10.4,10.4,77,0.00,CLR,OVC,0.01,WeatherDisplay:10.37,2017-10-20 07:20:00,
2017-10-20 03:25:00,78.5,71.1,30.06,NE,49,6.9,6.9,78,0.00,CLR,OVC,0.01,WeatherDisplay:10.37,2017-10-20 07:25:00,
2017-10-20 03:30:00,78.5,71.4,30.06,ENE,65,5.8,5.8,79,0.00,CLR,OVC,0.01,WeatherDisplay:10.37,2017-10-20 07:30:00,
2017-10-20 03:35:00,78.4,71.3,30.06,ENE,63,9.2,9.2,79,0.00,CLR,OVC,0.01,WeatherDisplay:10.37,2017-10-20 07:35:00,
2017-10-20 03:40:00,78.4,71.3,30.06,ENE,64,3.5,3.6,79,0.00,CLR,OVC,0.01,WeatherDisplay:10.37,2017-10-20 07:40:00,
2017-10-20 03:45:00,78.3,70.9,30.06,East,88,9.2,9.2,78,0.00,CLR,OVC,0.01,WeatherDisplay:10.37,2017-10-20 07:45:00,
2017-10-20 03:50:00,78.3,70.9,30.06,ENE,74,8.1,8.1,78,0.00,CLR,OVC,0.01,WeatherDisplay:10.37,2017-10-20 07:50:00,
2017-10-20 03:55:00,78.4,71.0,30.05,NE,51,10.4,10.4,78,0.00,CLR,OVC,0.01,WeatherDisplay:10.37,2017-10-20 07:55:00,
2017-10-20 04:00:00,78.4,71.0,30.06,ENE,76,11.5,11.5,78,0.00,CLR,OVC,0.01,WeatherDisplay:10.37,2017-10-20 08:00:00,
2017-10-20 04:05:00,78.3,70.5,30.05,East,82,10.4,10.4,77,0.00,CLR,OVC,0.01,WeatherDisplay:10.37,2017-10-20 08:05:00,
2017-10-20 04:10:00,78.4,70.6,30.05,ENE,71,11.5,11.5,77,0.00,CLR,OVC,0.01,WeatherDisplay:10.37,2017-10-20 08:10:00,
2017-10-20 04:15:00,78.4,70.6,30.05,NE,55,6.9,6.9,77,0.00,CLR,OVC,0.01,WeatherDisplay:10.37,2017-10-20 08:15:00,
2017-10-20 04:20:00,78.5,70.7,30.05,East,80,11.5,11.5,77,0.00,CLR,OVC,0.01,WeatherDisplay:10.37,2017-10-20 08:20:00,
2017-10-20 04:25:00,78.4,70.6,30.05,ENE,65,11.5,11.5,77,0.00,CLR,OVC,0.01,WeatherDisplay:10.37,2017-10-20 08:25:00,
2017-10-20 04:30:00,78.4,71.0,30.05,ENE,63,11.5,11.5,78,0.00,CLR,OVC,0.01,WeatherDisplay:10.37,2017-10-20 08:30:00,
2017-10-20 04:35:00,78.3,70.9,30.05,NE,53,11.5,11.5,78,0.00,CLR,OVC,0.01,WeatherDisplay:10.37,2017-10-20 08:35:00,
2017-10-20 04:40:00,78.2,70.4,30.05,ENE,64,4.6,4.9,77,0.00,CLR,OVC,0.01,WeatherDisplay:10.37,2017-10-20 08:40:00,
2017-10-20 04:45:00,78.2,70.4,30.05,East,81,15.0,15.0,77,0.00,CLR,OVC,0.01,WeatherDisplay:10.37,2017-10-20 08:45:00,
2017-10-20 04:50:00,78.2,70.0,30.05,ENE,74,11.5,11.5,76,0.00,CLR,OVC,0.01,WeatherDisplay:10.37,2017-10-20 08:50:00,
2017-10-20 04:55:00,78.3,70.1,30.06,ENE,76,11.5,11.5,76,0.00,CLR,OVC,0.01,WeatherDisplay:10.37,2017-10-20 08:55:00,
2017-10-20 05:00:00,78.3,70.5,30.05,ENE,64,10.4,10.4,77,0.00,CLR,OVC,0.01,WeatherDisplay:10.37,2017-10-20 09:00:00,
2017-10-20 05:05:00,78.2,70.0,30.06,ENE,67,10.4,10.4,76,0.00,CLR,OVC,0.01,WeatherDisplay:10.37,2017-10-20 09:05:00,
2017-10-20 05:10:00,78.2,69.6,30.06,ENE,74,11.5,11.5,75,0.00,CLR,OVC,0.01,WeatherDisplay:10.37,2017-10-20 09:10:00,
2017-10-20 05:15:00,78.2,69.6,30.06,ENE,61,14.0,14.0,75,0.00,CLR,OVC,0.01,WeatherDisplay:10.37,2017-10-20 09:15:00,
2017-10-20 05:16:00,78.2,69.6,30.06,East,95,13.8,13.8,75,0.00,CLR,OVC,0.01,WeatherDisplay:10.37,2017-10-20 09:16:00,
2017-10-20 05:21:00,78.2,70.0,30.06,ENE,70,9.2,9.2,76,0.00,CLR,OVC,0.01,WeatherDisplay:10.37,2017-10-20 09:21:00,
2017-10-20 05:26:00,78.2,70.0,30.06,NNE,27,15.0,15.0,76,0.00,CLR,OVC,0.01,WeatherDisplay:10.37,2017-10-20 09:26:00,
2017-10-20 05:31:00,78.2,70.0,30.06,ENE,63,10.4,10.4,76,0.00,CLR,OVC,0.01,WeatherDisplay:10.37,2017-10-20 09:31:00,
2017-10-20 05:36:00,78.2,70.0,30.06,ENE,66,4.6,4.6,76,0.00,CLR,OVC,0.01,WeatherDisplay:10.37,2017-10-20 09:36:00,
2017-10-20 05:41:00,78.1,69.9,30.06,ENE,78,11.5,11.5,76,0.00,CLR,OVC,0.01,WeatherDisplay:10.37,2017-10-20 09:41:00,
2017-10-20 05:46:00,78.1,69.9,30.06,ENE,58,11.5,11.5,76,0.00,CLR,OVC,0.01,WeatherDisplay:10.37,2017-10-20 09:46:00,
2017-10-20 05:51:00,78.1,69.9,30.06,NNE,28,11.5,11.5,76,0.00,CLR,OVC,0.01,WeatherDisplay:10.37,2017-10-20 09:51:00,
2017-10-20 05:56:00,78.1,69.9,30.06,ENE,57,11.5,11.5,76,0.00,CLR,OVC,0.01,WeatherDisplay:10.37,2017-10-20 09:56:00,
2017-10-20 06:01:00,78.2,70.4,30.06,ENE,60,11.5,11.5,77,0.00,CLR,OVC,0.01,WeatherDisplay:10.37,2017-10-20 10:01:00,
2017-10-20 06:06:00,78.2,70.4,30.06,ENE,60,12.7,12.7,77,0.00,CLR,OVC,0.01,WeatherDisplay:10.37,2017-10-20 10:06:00,
2017-10-20 06:11:00,78.1,70.3,30.06,East,81,9.2,9.2,77,0.00,CLR,OVC,0.01,WeatherDisplay:10.37,2017-10-20 10:11:00,
2017-10-20 06:16:00,78.1,70.3,30.06,ENE,68,11.5,11.5,77,0.00,CLR,OVC,0.01,WeatherDisplay:10.37,2017-10-20 10:16:00,
2017-10-20 06:21:00,78.1,70.3,30.06,NE,36,12.7,12.7,77,0.00,CLR,OVC,0.01,WeatherDisplay:10.37,2017-10-20 10:21:00,
2017-10-20 06:26:00,78.0,70.2,30.07,NE,56,10.4,10.4,77,0.00,CLR,OVC,0.01,WeatherDisplay:10.37,2017-10-20 10:26:00,
2017-10-20 06:31:00,78.1,70.3,30.07,ENE,76,11.5,11.5,77,0.00,CLR,OVC,0.01,WeatherDisplay:10.37,2017-10-20 10:31:00,
2017-10-20 06:36:00,78.2,70.4,30.07,ENE,61,9.2,9.2,77,0.00,CLR,OVC,0.01,WeatherDisplay:10.37,2017-10-20 10:36:00,
2017-10-20 06:41:00,78.2,70.0,30.07,ENE,57,13.8,13.8,76,0.00,CLR,OVC,0.01,WeatherDisplay:10.37,2017-10-20 10:41:00,
2017-10-20 06:46:00,78.2,70.0,30.07,ENE,64,11.0,11.0,76,0.00,CLR,OVC,0.01,WeatherDisplay:10.37,2017-10-20 10:46:00,
2017-10-20 06:51:00,78.2,70.0,30.07,NNE,23,10.4,10.4,76,0.00,CLR,OVC,0.01,WeatherDisplay:10.37,2017-10-20 10:51:00,
2017-10-20 06:56:00,78.1,69.9,30.07,ENE,62,10.4,10.4,76,0.00,CLR,OVC,0.01,WeatherDisplay:10.37,2017-10-20 10:56:00,
2017-10-20 07:01:00,78.1,69.5,30.07,NE,43,13.8,13.8,75,0.00,CLR,OVC,0.01,WeatherDisplay:10.37,2017-10-20 11:01:00,
2017-10-20 07:06:00,78.2,69.6,30.07,NNE,15,18.0,18.0,75,0.00,CLR,OVC,0.01,WeatherDisplay:10.37,2017-10-20 11:06:00,
2017-10-20 07:11:00,78.1,69.9,30.07,ENE,67,11.5,11.5,76,0.00,CLR,OVC,0.01,WeatherDisplay:10.37,2017-10-20 11:11:00,
2017-10-20 07:16:00,78.1,69.5,30.07,ENE,57,10.4,10.4,75,0.00,CLR,OVC,0.01,WeatherDisplay:10.37,2017-10-20 11:16:00,
2017-10-20 07:21:00,78.1,69.9,30.07,ENE,78,10.4,10.4,76,0.00,CLR,OVC,0.01,WeatherDisplay:10.37,2017-10-20 11:21:00,
2017-10-20 07:26:00,78.0,69.8,30.08,NE,49,11.5,11.5,76,0.00,CLR,OVC,0.01,WeatherDisplay:10.37,2017-10-20 11:26:00,
2017-10-20 07:31:00,78.0,69.4,30.08,ENE,68,9.0,9.0,75,0.00,CLR,OVC,0.01,WeatherDisplay:10.37,2017-10-20 11:31:00,
2017-10-20 07:36:00,78.0,69.4,30.08,ENE,59,12.7,12.7,75,0.00,CLR,OVC,0.01,WeatherDisplay:10.37,2017-10-20 11:36:00,
2017-10-20 07:41:00,78.0,69.4,30.08,NE,45,10.4,10.4,75,0.00,CLR,OVC,0.01,WeatherDisplay:10.37,2017-10-20 11:41:00,
2017-10-20 07:46:00,78.1,69.5,30.08,East,81,10.4,10.4,75,0.00,CLR,OVC,0.01,WeatherDisplay:10.37,2017-10-20 11:46:00,
2017-10-20 07:51:00,78.3,69.3,30.08,NE,53,10.4,10.4,74,0.00,CLR,OVC,0.01,WeatherDisplay:10.37,2017-10-20 11:51:00,
2017-10-20 07:56:00,78.5,69.5,30.07,East,88,10.4,10.4,74,0.00,CLR,OVC,0.01,WeatherDisplay:10.37,2017-10-20 11:56:00,
2017-10-20 08:01:00,78.7,69.3,30.08,NNE,32,13.8,13.8,73,0.00,CLR,OVC,0.01,WeatherDisplay:10.37,2017-10-20 12:01:00,
2017-10-20 08:06:00,79.0,70.0,30.08,NE,39,14.0,14.0,74,0.00,CLR,OVC,0.01,WeatherDisplay:10.37,2017-10-20 12:06:00,
2017-10-20 08:11:00,79.2,69.8,30.08,ENE,69,16.1,16.1,73,0.00,CLR,OVC,0.01,WeatherDisplay:10.37,2017-10-20 12:11:00,
2017-10-20 08:16:00,79.3,69.5,30.08,ENE,67,10.4,10.4,72,0.00,CLR,OVC,0.01,WeatherDisplay:10.37,2017-10-20 12:16:00,
2017-10-20 08:21:00,79.5,69.7,30.08,NNE,32,11.5,11.5,72,0.00,CLR,OVC,0.01,WeatherDisplay:10.37,2017-10-20 12:21:00,
2017-10-20 08:26:00,79.7,69.9,30.09,East,90,12.0,12.0,72,0.00,CLR,OVC,0.01,WeatherDisplay:10.37,2017-10-20 12:26:00,
2017-10-20 08:31:00,79.8,70.0,30.09,East,80,11.5,11.5,72,0.00,CLR,OVC,0.01,WeatherDisplay:10.37,2017-10-20 12:31:00,
2017-10-20 08:36:00,80.0,70.2,30.09,ENE,69,10.4,10.4,72,0.00,CLR,OVC,0.01,WeatherDisplay:10.37,2017-10-20 12:36:00,
2017-10-20 08:41:00,80.2,69.9,30.09,East,89,11.5,11.5,71,0.00,CLR,OVC,0.01,WeatherDisplay:10.37,2017-10-20 12:41:00,
2017-10-20 08:46:00,80.3,70.0,30.10,ENE,72,10.4,10.4,71,0.00,CLR,OVC,0.01,WeatherDisplay:10.37,2017-10-20 12:46:00,
2017-10-20 08:51:00,80.7,70.4,30.10,ENE,69,11.5,11.5,71,0.00,CLR,OVC,0.01,WeatherDisplay:10.37,2017-10-20 12:51:00,
2017-10-20 08:56:00,80.8,70.1,30.10,NE,34,10.4,10.4,70,0.00,CLR,OVC,0.01,WeatherDisplay:10.37,2017-10-20 12:56:00,
2017-10-20 09:01:00,80.7,70.0,30.10,NE,51,10.4,10.4,70,0.00,CLR,OVC,0.01,WeatherDisplay:10.37,2017-10-20 13:01:00,
2017-10-20 09:06:00,80.9,70.2,30.10,NE,46,11.5,11.5,70,0.00,CLR,OVC,0.01,WeatherDisplay:10.37,2017-10-20 13:06:00,
2017-10-20 09:11:00,81.1,70.0,30.10,ENE,64,13.8,13.8,69,0.00,CLR,OVC,0.01,WeatherDisplay:10.37,2017-10-20 13:11:00,
2017-10-20 09:16:00,81.1,70.0,30.10,NE,51,12.7,12.7,69,0.00,CLR,OVC,0.01,WeatherDisplay:10.37,2017-10-20 13:16:00,
2017-10-20 09:21:00,81.4,70.2,30.10,NE,46,9.2,9.2,69,0.00,CLR,OVC,0.01,WeatherDisplay:10.37,2017-10-20 13:21:00,
2017-10-20 09:26:00,81.8,70.6,30.10,ENE,70,13.0,13.0,69,0.00,CLR,OVC,0.01,WeatherDisplay:10.37,2017-10-20 13:26:00,
2017-10-20 09:31:00,82.1,70.1,30.10,NNE,32,10.4,10.4,67,0.00,CLR,OVC,0.01,WeatherDisplay:10.37,2017-10-20 13:31:00,
2017-10-20 09:36:00,82.3,70.2,30.11,ENE,67,8.1,8.1,67,0.00,CLR,OVC,0.01,WeatherDisplay:10.37,2017-10-20 13:36:00,
2017-10-20 09:41:00,82.6,70.5,30.11,ENE,69,10.4,10.4,67,0.00,CLR,OVC,0.01,WeatherDisplay:10.37,2017-10-20 13:41:00,
2017-10-20 09:51:00,82.7,70.2,30.11,NE,54,14.0,14.0,66,0.00,CLR,OVC,0.01,WeatherDisplay:10.37,2017-10-20 13:51:00,
2017-10-20 09:57:00,82.7,70.6,30.11,ENE,58,10.4,10.4,67,0.00,CLR,OVC,0.01,WeatherDisplay:10.37,2017-10-20 13:57:00,
2017-10-20 10:02:00,82.6,70.5,30.11,ENE,61,9.2,9.2,67,0.00,CLR,OVC,0.01,WeatherDisplay:10.37,2017-10-20 14:02:00,
2017-10-20 10:07:00,82.8,70.3,30.11,NE,53,12.7,12.7,66,0.00,CLR,OVC,0.01,WeatherDisplay:10.37,2017-10-20 14:07:00,
2017-10-20 10:12:00,83.0,70.0,30.11,ENE,59,10.4,10.4,65,0.00,CLR,OVC,0.01,WeatherDisplay:10.37,2017-10-20 14:12:00,
2017-10-20 10:17:00,83.1,70.6,30.11,NE,46,10.4,10.4,66,0.00,CLR,OVC,0.01,WeatherDisplay:10.37,2017-10-20 14:17:00,
2017-10-20 10:22:00,83.1,70.6,30.11,East,94,12.7,12.7,66,0.00,CLR,OVC,0.01,WeatherDisplay:10.37,2017-10-20 14:22:00,
2017-10-20 10:27:00,82.9,70.4,30.11,ENE,67,11.5,11.5,66,0.00,CLR,OVC,0.01,WeatherDisplay:10.37,2017-10-20 14:27:00,
2017-10-20 10:32:00,83.2,71.1,30.11,ENE,63,12.7,12.7,67,0.00,CLR,OVC,0.01,WeatherDisplay:10.37,2017-10-20 14:32:00,
2017-10-20 10:37:00,84.1,72.0,30.11,NE,47,15.0,15.0,67,0.00,CLR,OVC,0.01,WeatherDisplay:10.37,2017-10-20 14:37:00,
2017-10-20 10:42:00,84.3,71.2,30.11,ENE,61,18.4,18.4,65,0.00,CLR,OVC,0.01,WeatherDisplay:10.37,2017-10-20 14:42:00,
2017-10-20 10:47:00,83.8,71.2,30.11,ENE,67,10.4,10.4,66,0.00,CLR,OVC,0.01,WeatherDisplay:10.37,2017-10-20 14:47:00,
2017-10-20 10:52:00,83.8,70.3,30.12,ENE,67,13.8,13.8,64,0.00,CLR,OVC,0.01,WeatherDisplay:10.37,2017-10-20 14:52:00,
2017-10-20 10:57:00,84.2,70.2,30.12,ENE,61,12.0,12.0,63,0.00,CLR,OVC,0.01,WeatherDisplay:10.37,2017-10-20 14:57:00,
2017-10-20 11:02:00,84.1,70.6,30.12,East,80,16.1,16.1,64,0.00,CLR,OVC,0.01,WeatherDisplay:10.37,2017-10-20 15:02:00,
2017-10-20 11:07:00,83.7,69.8,30.11,ENE,69,17.3,17.3,63,0.00,CLR,OVC,0.01,WeatherDisplay:10.37,2017-10-20 15:07:00,
2017-10-20 11:12:00,83.8,69.9,30.11,ENE,73,11.5,11.5,63,0.00,CLR,OVC,0.01,WeatherDisplay:10.37,2017-10-20 15:12:00,
2017-10-20 11:17:00,83.8,69.9,30.12,NE,36,16.1,16.1,63,0.00,CLR,OVC,0.01,WeatherDisplay:10.37,2017-10-20 15:17:00,
2017-10-20 11:22:00,84.0,70.5,30.12,East,85,11.5,11.5,64,0.00,CLR,OVC,0.01,WeatherDisplay:10.37,2017-10-20 15:22:00,
2017-10-20 11:27:00,84.0,71.0,30.11,NNE,17,13.8,13.8,65,0.00,CLR,OVC,0.01,WeatherDisplay:10.37,2017-10-20 15:27:00,
2017-10-20 11:32:00,84.3,70.3,30.11,NE,37,16.1,16.1,63,0.00,CLR,OVC,0.01,WeatherDisplay:10.37,2017-10-20 15:32:00,
2017-10-20 11:37:00,84.6,71.1,30.11,East,84,11.5,11.5,64,0.00,CLR,OVC,0.01,WeatherDisplay:10.37,2017-10-20 15:37:00,
2017-10-20 11:42:00,84.8,70.8,30.11,NE,40,10.4,10.4,63,0.00,CLR,OVC,0.01,WeatherDisplay:10.37,2017-10-20 15:42:00,
2017-10-20 11:47:00,84.7,70.7,30.11,ENE,67,13.8,13.8,63,0.00,CLR,OVC,0.01,WeatherDisplay:10.37,2017-10-20 15:47:00,
2017-10-20 11:52:00,84.7,71.2,30.11,ENE,65,11.5,11.5,64,0.00,CLR,OVC,0.01,WeatherDisplay:10.37,2017-10-20 15:52:00,
2017-10-20 11:57:00,85.3,71.3,30.11,NNE,16,13.8,13.8,63,0.00,CLR,OVC,0.01,WeatherDisplay:10.37,2017-10-20 15:57:00,
2017-10-20 12:02:00,85.3,71.7,30.11,ENE,67,18.4,18.4,64,0.00,CLR,OVC,0.01,WeatherDisplay:10.37,2017-10-20 16:02:00,
2017-10-20 12:07:00,85.1,71.5,30.11,ENE,61,13.8,13.8,64,0.00,CLR,OVC,0.01,WeatherDisplay:10.37,2017-10-20 16:07:00,
2017-10-20 12:12:00,85.3,71.7,30.11,ENE,61,14.0,14.0,64,0.00,CLR,OVC,0.01,WeatherDisplay:10.37,2017-10-20 16:12:00,
2017-10-20 12:17:00,85.1,72.0,30.10,NE,40,11.5,11.5,65,0.00,CLR,OVC,0.01,WeatherDisplay:10.37,2017-10-20 16:17:00,
2017-10-20 12:22:00,85.1,72.0,30.10,ENE,72,13.8,13.8,65,0.00,CLR,OVC,0.01,WeatherDisplay:10.37,2017-10-20 16:22:00,
2017-10-20 12:27:00,84.8,72.2,30.10,ENE,77,15.0,15.0,66,0.00,CLR,OVC,0.01,WeatherDisplay:10.37,2017-10-20 16:27:00,
2017-10-20 12:32:00,84.9,72.3,30.10,North,5,17.3,17.3,66,0.00,CLR,OVC,0.01,WeatherDisplay:10.37,2017-10-20 16:32:00,
2017-10-20 12:37:00,85.8,73.1,30.10,ENE,58,11.5,11.5,66,0.00,CLR,OVC,0.01,WeatherDisplay:10.37,2017-10-20 16:37:00,
2017-10-20 12:42:00,86.0,72.9,30.10,ENE,59,15.0,15.0,65,0.00,CLR,OVC,0.01,WeatherDisplay:10.37,2017-10-20 16:42:00,
2017-10-20 12:47:00,85.8,72.7,30.09,ENE,67,12.0,12.0,65,0.00,CLR,OVC,0.01,WeatherDisplay:10.37,2017-10-20 16:47:00,
2017-10-20 12:52:00,85.5,73.3,30.09,NNE,32,11.5,11.5,67,0.00,CLR,OVC,0.01,WeatherDisplay:10.37,2017-10-20 16:52:00,
2017-10-20 12:57:00,85.7,73.0,30.09,ENE,70,16.1,16.1,66,0.00,CLR,OVC,0.01,WeatherDisplay:10.37,2017-10-20 16:57:00,
2017-10-20 13:02:00,84.6,72.4,30.09,East,79,12.7,12.7,67,0.00,CLR,OVC,0.01,WeatherDisplay:10.37,2017-10-20 17:02:00,
2017-10-20 13:07:00,85.5,73.3,30.09,ENE,67,11.5,11.5,67,0.00,CLR,OVC,0.01,WeatherDisplay:10.37,2017-10-20 17:07:00,
2017-10-20 13:12:00,86.0,73.3,30.09,ENE,76,18.4,18.4,66,0.00,CLR,OVC,0.01,WeatherDisplay:10.37,2017-10-20 17:12:00,
2017-10-20 13:17:00,85.8,73.1,30.08,ENE,67,13.8,13.8,66,0.00,CLR,OVC,0.01,WeatherDisplay:10.37,2017-10-20 17:17:00,
2017-10-20 13:22:00,85.9,72.8,30.08,ENE,63,19.0,19.0,65,0.00,CLR,OVC,0.01,WeatherDisplay:10.37,2017-10-20 17:22:00,
2017-10-20 13:27:00,86.0,73.3,30.08,NE,35,11.5,11.5,66,0.00,CLR,OVC,0.01,WeatherDisplay:10.37,2017-10-20 17:27:00,
2017-10-20 13:32:00,86.3,73.6,30.07,NE,44,16.0,16.0,66,0.00,CLR,OVC,0.01,WeatherDisplay:10.37,2017-10-20 17:32:00,
2017-10-20 13:37:00,86.2,73.0,30.07,NNE,13,15.0,15.0,65,0.00,CLR,OVC,0.01,WeatherDisplay:10.37,2017-10-20 17:37:00,
2017-10-20 13:42:00,86.4,73.2,30.07,NE,48,13.8,13.8,65,0.00,CLR,OVC,0.01,WeatherDisplay:10.37,2017-10-20 17:42:00,
2017-10-20 13:47:00,86.0,73.3,30.07,NE,53,15.0,15.0,66,0.00,CLR,OVC,0.01,WeatherDisplay:10.37,2017-10-20 17:47:00,
2017-10-20 13:52:00,86.4,74.1,30.06,East,85,6.9,6.9,67,0.00,CLR,OVC,0.01,WeatherDisplay:10.37,2017-10-20 17:52:00,
2017-10-20 13:57:00,85.7,72.6,30.06,NNE,20,16.1,16.1,65,0.00,CLR,OVC,0.01,WeatherDisplay:10.37,2017-10-20 17:57:00,
2017-10-20 14:02:00,85.8,73.1,30.06,ENE,71,12.7,12.7,66,0.00,CLR,OVC,0.01,WeatherDisplay:10.37,2017-10-20 18:02:00,
2017-10-20 14:07:00,86.2,72.6,30.06,NE,55,12.0,12.0,64,0.00,CLR,OVC,0.01,WeatherDisplay:10.37,2017-10-20 18:07:00,
2017-10-20 14:12:00,86.3,73.1,30.06,ENE,78,14.0,14.0,65,0.00,CLR,OVC,0.01,WeatherDisplay:10.37,2017-10-20 18:12:00,
2017-10-20 14:17:00,86.2,73.0,30.06,ENE,67,15.0,15.0,65,0.00,CLR,OVC,0.01,WeatherDisplay:10.37,2017-10-20 18:17:00,
2017-10-20 14:22:00,85.6,72.5,30.06,NE,56,16.1,16.1,65,0.00,CLR,OVC,0.01,WeatherDisplay:10.37,2017-10-20 18:22:00,
2017-10-20 14:27:00,85.8,73.1,30.06,ENE,74,11.5,11.5,66,0.00,CLR,OVC,0.01,WeatherDisplay:10.37,2017-10-20 18:27:00,
2017-10-20 14:32:00,85.1,72.5,30.06,East,85,16.1,16.1,66,0.00,CLR,OVC,0.01,WeatherDisplay:10.37,2017-10-20 18:32:00,
2017-10-20 14:37:00,85.0,72.8,30.06,ENE,62,18.4,18.4,67,0.00,CLR,OVC,0.01,WeatherDisplay:10.37,2017-10-20 18:37:00,
2017-10-20 14:42:00,84.8,73.1,30.06,NE,36,12.0,12.0,68,0.00,CLR,OVC,0.01,WeatherDisplay:10.37,2017-10-20 18:42:00,
2017-10-20 14:47:00,85.0,73.3,30.06,NE,44,15.0,15.0,68,0.00,CLR,OVC,0.01,WeatherDisplay:10.37,2017-10-20 18:47:00,
2017-10-20 14:52:00,85.2,73.4,30.06,ESE,121,13.8,13.8,68,0.00,CLR,OVC,0.01,WeatherDisplay:10.37,2017-10-20 18:52:00,
2017-10-20 14:57:00,84.7,73.0,30.05,NNE,27,12.7,12.7,68,0.00,CLR,OVC,0.01,WeatherDisplay:10.37,2017-10-20 18:57:00,
2017-10-20 15:02:00,84.0,72.7,30.05,NE,53,12.0,12.0,69,0.00,CLR,OVC,0.01,WeatherDisplay:10.37,2017-10-20 19:02:00,
2017-10-20 15:07:00,83.8,72.5,30.05,NE,39,15.0,15.0,69,0.00,CLR,OVC,0.01,WeatherDisplay:10.37,2017-10-20 19:07:00,
2017-10-20 15:08:00,83.8,72.5,30.06,ENE,59,13.8,13.8,69,0.00,CLR,OVC,0.01,WeatherDisplay:10.37,2017-10-20 19:08:00,
2017-10-20 15:13:00,83.5,72.3,30.05,NNW,348,12.7,12.7,69,0.00,CLR,OVC,0.01,WeatherDisplay:10.37,2017-10-20 19:13:00,
2017-10-20 15:18:00,83.5,72.7,30.05,ENE,68,16.1,16.1,70,0.00,CLR,OVC,0.01,WeatherDisplay:10.37,2017-10-20 19:18:00,
2017-10-20 15:23:00,84.9,72.7,30.06,ENE,63,16.1,16.1,67,0.00,CLR,OVC,0.01,WeatherDisplay:10.37,2017-10-20 19:23:00,
2017-10-20 15:28:00,85.2,73.0,30.06,NE,51,9.2,9.2,67,0.00,CLR,OVC,0.01,WeatherDisplay:10.37,2017-10-20 19:28:00,
2017-10-20 15:33:00,84.3,72.1,30.06,NE,40,13.8,13.8,67,0.00,CLR,OVC,0.01,WeatherDisplay:10.37,2017-10-20 19:33:00,
2017-10-20 15:38:00,84.0,72.3,30.06,NNE,13,17.3,17.3,68,0.00,CLR,OVC,0.01,WeatherDisplay:10.37,2017-10-20 19:38:00,
2017-10-20 15:43:00,83.5,72.3,30.06,NE,46,15.0,15.0,69,0.00,CLR,OVC,0.01,WeatherDisplay:10.37,2017-10-20 19:43:00,
2017-10-20 15:48:00,82.8,71.6,30.05,NE,53,13.8,13.8,69,0.00,CLR,OVC,0.01,WeatherDisplay:10.37,2017-10-20 19:48:00,